Weather observations for the past three days for
Hillsville
Metric (Imperial)
Date Time (edt) Wind (kph) Vis. (km) Weather Sky Cond. Temperature (ºC) Relative Humidity Wind Chill (°C) Heat Index (°C) Pressure Precipitation (cm)
Air Dwpt 6 hour altimeter (cm) sea level (mb) 1 hr 3 hr 6 hr
Max. Min.
08 04:55 NW 19 16.09 Fair CLR 7 0 61% 4 76.15 0.0
08 04:35 NW 20 16.09 Fair CLR 7 1 66% 4 76.15 0.0
08 04:15 NW 24 16.09 Fair CLR 7 1 66% 4 76.15 0.0
08 03:55 NW 26 16.09 Fair CLR 8 1 62% 5 76.15 0.0
08 03:35 NW 22 16.09 Fair CLR 8 1 62% 5 76.15 0.0
08 03:15 NW 20 16.09 Fair CLR 8 1 62% 5 76.15 0.0
08 02:55 NW 19 16.09 Fair CLR 8 1 62% 5 76.15 0.0
08 02:35 NW 20 16.09 Fair CLR 8 1 62% 5 76.15 0.0
08 02:15 NW 19 16.09 Fair CLR 8 2 66% 5 76.15 0.0
08 01:55 NW 17 16.09 Fair CLR 8 2 66% 6 76.15 0.0
08 01:35 NW 17 16.09 Fair CLR 8 3 71% 6 76.15 0.0
08 01:15 NW 19 16.09 Fair CLR 9 3 66% 7 76.15 0.0
08 00:55 NW 20 G 26 16.09 Fair CLR 9 3 66% 6 76.12 0.0
08 00:35 NW 15 16.09 Fair CLR 9 3 66% 7 76.1 0.0
08 00:15 NW 15 16.09 Fair CLR 10 3 62% 8 76.1 0.0
07 23:55 W 13 16.09 Fair CLR 10 3 62% 8 76.1 0.0
07 23:35 NW 17 G 28 16.09 Fair CLR 10 4 67% 8 76.1 0.0
07 23:15 NW 15 16.09 Fair CLR 10 4 67% 8 76.07 0.0
07 22:55 NW 9 16.09 Fair CLR 10 5 71% 9 76.07 0.0
07 22:35 NW 7 16.09 Fair CLR 10 5 71% 9 76.05 0.0
07 22:15 W 6 16.09 Fair CLR 9 5 76% 76.05 0.0
07 21:55 Calm 16.09 Fair CLR 10 5 71% 76.02 0.0
07 21:35 NW 9 16.09 Fair CLR 10 5 71% 9 76 0.0
07 21:15 NW 13 16.09 Fair CLR 10 5 71% 8 75.97 0.0
07 20:55 NW 11 16.09 Fair CLR 10 5 71% 9 75.95 0.0
07 20:35 NW 17 G 28 16.09 Fair CLR 11 5 67% 75.95 0.0
07 20:15 NW 17 G 31 16.09 Fair CLR 11 5 67% 75.95 0.0
07 19:55 NW 26 G 31 16.09 Partly Cloudy SCT035 12 4 58% 75.95 0.0
07 19:35 NW 22 G 30 16.09 Partly Cloudy SCT037 12 5 63% 75.95 0.0
07 19:15 NW 17 16.09 Partly Cloudy SCT037 12 4 58% 75.92 0.0
07 18:55 NW 22 G 37 16.09 Mostly Cloudy BKN035 12 4 58% 75.92 0.0
07 18:35 NW 24 G 31 16.09 Mostly Cloudy BKN030 BKN037 12 5 63% 75.87 0.0
07 18:15 NW 26 G 39 16.09 Mostly Cloudy BKN026 12 6 67% 75.87 0.0
07 17:55 NW 20 G 31 16.09 Mostly Cloudy BKN024 13 7 67% 75.87 0.0
07 17:35 NW 20 16.09 Overcast OVC022 13 7 67% 75.84 0.0
07 17:15 NW 30 G 39 16.09 Overcast BKN022 OVC031 12 7 72% 75.82 0.0
07 16:15 NW 26 G 37 16.09 Overcast BKN018 OVC023 14 8 67% 75.79 0.0
07 15:55 N 15 16.09 Overcast OVC016 13 8 72% 75.82 0.0
07 15:35 N 17 G 28 16.09 Overcast OVC016 12 8 77% 75.82 0.0
07 15:15 NW 22 0.00 NULL NULL 0 0 0% 75.84 0.0
07 14:55 NW 22 16.09 Overcast OVC015 13 9 77% 75.84 0.0
07 14:35 NW 22 G 30 16.09 Overcast OVC013 12 9 82% 75.87 0.0
07 14:15 N 15 16.09 Overcast OVC011 12 9 82% 75.87 0.0
07 13:55 NW 17 G 28 16.09 Overcast OVC009 12 9 82% 75.87 0.0
07 13:35 NW 17 16.09 Overcast OVC007 11 9 88% 75.87 0.0
07 13:15 N 15 16.09 Overcast OVC007 11 10 94% 75.87 0.0
07 12:55 N 13 16.09 Overcast OVC005 11 10 94% 75.9 0.0
07 12:35 NW 17 11.27 Overcast OVC003 11 10 94% 75.9 0.0
07 12:15 NE 9 8.05 Fog/Mist OVC003 11 10 94% 75.9 0.0
07 11:55 N 9 8.05 Fog/Mist OVC003 11 11 100% 75.9 0.0
07 11:35 N 15 6.44 Fog/Mist OVC003 11 10 94% 75.9 0.0
07 11:15 N 9 11.27 Overcast OVC003 11 11 100% 75.9 0.0
07 10:55 NE 11 11.27 Overcast OVC003 12 11 94% 75.9 0.0
07 10:15 N 9 16.09 Overcast OVC003 12 11 94% 75.9 0.0
07 09:55 N 11 16.09 Overcast OVC003 12 11 94% 75.9 0.0
07 09:35 NE 7 16.09 Overcast OVC003 12 11 94% 75.87 0.0
07 09:15 N 7 16.09 Overcast OVC005 12 11 94% 75.87 0.0
07 08:55 NE 9 16.09 Overcast OVC005 12 11 94% 75.87 0.0
07 08:35 N 7 16.09 Overcast OVC005 12 11 94% 75.97 0.0
07 08:15 N 7 16.09 Overcast OVC003 12 12 100% 75.95 0.0
07 07:55 N 9 16.09 Light Rain OVC003 12 12 100% 75.92 0.0
07 07:35 N 9 4.83 Fog/Mist OVC003 12 12 100% 75.87 0.0
07 07:15 N 7 0.40 Fog OVC003 12 12 100% 75.9 0.0
07 06:55 N 7 1.21 Fog/Mist OVC003 13 12 94% 75.87 0.0
07 06:35 N 6 11.27 Overcast OVC003 13 12 94% 75.84 0.0
07 06:15 N 11 16.09 Overcast OVC003 13 12 94% 75.87 0.0
07 05:55 N 28 G 33 0.40 Fog OVC003 14 13 94% 75.87 0.0 0.03
07 05:35 N 13 1.21 Fog/Mist OVC003 15 14 94% 75.84 0.0 0.03
07 05:15 N 6 4.83 Light Rain BKN039 BKN050 OVC100 15 14 94% 75.82 0.0 0.03
07 04:55 Calm 16.09 Overcast BKN039 OVC080 15 15 100% 75.82 0.0 0.03
07 04:35 Calm 8.05 Light Rain SCT039 BKN060 OVC095 15 14 94% 75.84 0.0 0.03
07 04:15 Calm 16.09 Light Drizzle SCT030 OVC060 15 14 94% 75.92 0.0
07 03:55 Calm 16.09 Overcast BKN060 OVC075 15 14 94% 75.87 0.0
07 03:35 S 7 16.09 Mostly Cloudy SCT075 BKN110 15 14 94% 75.9 0.0
07 03:15 SW 9 16.09 Partly Cloudy SCT090 SCT120 15 14 94% 75.87 0.0
07 02:55 SW 6 16.09 Overcast BKN090 OVC110 15 14 94% 75.9 0.0
07 02:35 S 6 16.09 Overcast OVC090 15 14 94% 75.9 0.0
07 02:15 S 7 16.09 Overcast BKN090 OVC110 15 13 88% 75.87 0.0
07 01:55 Calm 16.09 Mostly Cloudy SCT085 BKN110 15 14 94% 75.92 0.0
07 01:35 SW 6 16.09 Overcast BKN085 OVC110 16 13 83% 75.95 0.0
07 01:15 Calm 16.09 Overcast OVC085 16 13 83% 75.97 0.0
07 00:55 S 7 16.09 Overcast SCT045 SCT065 OVC085 16 13 83% 75.97 0.0
07 00:35 S 9 16.09 Overcast BKN043 BKN050 OVC065 16 14 88% 76 0.0
07 00:15 SW 6 16.09 Overcast SCT034 OVC042 16 14 88% 76 0.0
06 23:55 W 11 16.09 Overcast SCT016 BKN025 OVC033 16 15 94% 75.97 0.0 0.03
06 23:35 N 7 16.09 Overcast SCT014 BKN020 OVC120 16 15 94% 76 0.0 0.03
06 23:15 Calm 16.09 Mostly Cloudy BKN023 BKN120 17 15 88% 75.97 0.0 0.03
06 22:55 Calm 16.09 Rain SCT020 BKN025 OVC038 17 15 88% 76.05 0.0 0.03
06 22:35 W 11 16.09 Light Rain BKN025 BKN034 OVC045 17 15 88% 76.1 0.0
06 22:15 SW 17 16.09 Overcast SCT039 BKN048 OVC065 17 15 88% 76.02 0.0
06 21:55 S 9 16.09 Overcast SCT042 BKN050 OVC080 17 15 88% 76 0.0
06 21:35 S 9 16.09 Overcast BKN040 OVC048 17 15 88% 76 0.0
06 21:15 S 9 16.09 Overcast SCT039 OVC048 17 15 88% 75.97 0.0
06 20:55 S 7 16.09 Overcast OVC039 17 15 88% 75.97 0.0
06 20:35 S 9 16.09 Mostly Cloudy BKN039 BKN055 BKN075 17 15 88% 75.97 0.0
06 20:15 S 11 16.09 Light Rain SCT050 SCT070 BKN120 18 15 83% 75.95 0.0
06 19:55 SW 15 16.09 Mostly Cloudy SCT041 BKN048 18 15 83% 75.97 0.0
06 19:35 S 9 16.09 Overcast BKN041 OVC050 18 15 83% 75.95 0.0
06 19:15 S 9 16.09 Overcast SCT041 BKN048 OVC050 18 15 83% 75.95 0.0
06 18:55 S 11 16.09 Overcast OVC041 18 15 83% 75.95 0.0
06 18:35 S 15 16.09 Overcast BKN041 OVC048 18 15 83% 75.95 0.0
06 18:15 S 9 16.09 Overcast BKN041 BKN048 OVC060 18 15 83% 75.97 0.0
06 17:55 S 13 16.09 Overcast BKN041 BKN050 OVC055 18 15 83% 75.97 0.0
06 17:35 S 11 16.09 Overcast SCT031 OVC039 18 15 83% 75.95 0.0
06 17:15 S 11 16.09 Overcast BKN027 OVC035 19 15 78% 75.95 0.0
06 16:55 S 11 16.09 Overcast BKN030 OVC036 18 15 83% 75.95 0.0
06 16:35 Calm 16.09 Overcast BKN035 OVC045 20 15 73% 75.95 0.0
06 16:15 SW 17 16.09 Overcast BKN039 BKN048 OVC055 20 15 73% 75.95 0.0
06 15:55 S 13 16.09 Mostly Cloudy SCT039 BKN048 20 15 73% 75.95 0.0
06 15:35 SW 17 16.09 Fair CLR 20 15 73% 75.95 0.0
06 15:15 SW 15 16.09 Fair CLR 19 15 78% 75.97 0.0
06 14:55 S 11 16.09 Partly Cloudy SCT029 18 15 83% 75.95 0.0
06 14:35 S 11 16.09 Partly Cloudy SCT029 18 15 83% 75.97 0.0
06 14:15 S 13 16.09 Fair CLR 17 14 83% 75.97 0.0
06 13:55 S 11 16.09 Partly Cloudy SCT035 SCT070 SCT090 17 14 83% 75.97 0.0
06 13:35 SE 17 16.09 Light Rain SCT028 BKN070 OVC110 16 14 88% 75.97 0.0
06 13:15 S 6 16.09 Overcast SCT023 OVC030 16 14 88% 76.07 0.0
06 12:55 S 11 16.09 Light Rain SCT023 BKN028 OVC047 16 13 83% 76.1 0.0 0.05
06 12:35 S 11 16.09 Light Rain SCT032 BKN045 OVC100 17 13 77% 76.1 0.0
06 12:15 S 9 16.09 Mostly Cloudy SCT046 BKN110 17 13 77% 76.1 0.0
06 11:55 SW 11 16.09 Partly Cloudy SCT120 17 13 77% 76.07 0.0
06 11:35 S 11 16.09 Partly Cloudy SCT038 SCT065 SCT080 16 13 83% 76.05 0.0
06 11:15 S 13 16.09 Overcast SCT037 BKN045 OVC070 16 13 83% 76.02 0.0
06 10:55 S 7 16.09 Overcast SCT038 BKN044 OVC070 16 13 83% 76.05 0.0
06 10:35 S 11 16.09 Partly Cloudy SCT040 SCT050 SCT060 15 13 88% 76.05 0.0
06 10:15 S 9 16.09 Mostly Cloudy SCT038 BKN050 BKN070 15 12 82% 76.02 0.0
06 09:55 S 13 16.09 Light Rain SCT033 BKN070 OVC080 14 12 88% 76.05 0.0 0.05
06 09:35 S 9 16.09 Light Rain SCT044 BKN080 OVC100 13 12 94% 76.02 0.0 0.05
06 09:15 S 9 16.09 Light Rain SCT047 BKN070 OVC090 13 12 94% 76.02 0.0
06 08:55 S 11 16.09 Light Rain SCT060 BKN075 OVC090 13 12 94% 76 0.0 0.05
06 08:35 S 11 16.09 Light Rain SCT060 BKN070 OVC095 13 12 94% 76 0.0 0.05
06 08:15 S 17 16.09 Light Rain SCT041 BKN075 OVC095 13 12 94% 76.02 0.0 0.03
06 07:55 SW 13 16.09 Light Rain SCT041 BKN060 OVC100 14 11 82% 76.05 0.0
06 07:35 S 11 16.09 Overcast SCT080 OVC100 13 11 88% 75.97 0.0
06 07:15 S 9 16.09 Overcast SCT075 SCT090 OVC110 13 11 88% 75.97 0.0
06 06:55 S 15 16.09 Mostly Cloudy SCT090 BKN120 13 11 88% 75.95 0.0
06 06:35 S 13 16.09 Mostly Cloudy BKN090 BKN120 13 11 88% 75.95 0.0
06 06:15 S 15 16.09 Overcast OVC090 13 11 88% 75.92 0.0
06 05:55 S 13 16.09 Overcast OVC090 13 11 88% 75.92 0.0
06 05:35 S 13 16.09 Overcast SCT070 OVC090 13 10 82% 75.92 0.0
06 05:15 S 13 16.09 Light Rain BKN100 OVC120 13 10 82% 75.95 0.0
06 04:55 S 11 16.09 Mostly Cloudy SCT050 SCT100 BKN120 13 10 82% 75.97 0.0
06 04:35 S 11 16.09 Partly Cloudy SCT050 SCT095 SCT120 13 10 82% 75.97 0.0
06 04:15 S 15 16.09 Overcast BKN060 OVC095 14 10 77% 75.97 0.0
06 03:55 S 15 G 26 16.09 Overcast BKN060 OVC070 15 9 68% 75.97 0.0
06 03:35 S 17 G 30 16.09 Overcast SCT065 BKN080 OVC095 15 8 63% 75.97 0.0
06 03:15 S 13 16.09 Partly Cloudy SCT080 SCT110 15 8 63% 76 0.0
06 02:55 S 13 16.09 Mostly Cloudy SCT060 SCT075 BKN110 15 8 63% 76 0.0
06 01:55 S 13 16.09 Fair CLR 16 7 55% 76.02 0.0
06 01:35 S 19 16.09 Fair CLR 16 7 55% 76.05 0.0
06 01:15 SW 20 16.09 Fair CLR 16 7 55% 76.07 0.0
06 00:55 S 15 16.09 Partly Cloudy SCT080 16 7 55% 76.05 0.0
06 00:35 S 15 16.09 Mostly Cloudy BKN080 16 7 55% 76.07 0.0
06 00:15 S 17 16.09 Mostly Cloudy BKN080 BKN110 17 7 52% 76.07 0.0
05 23:55 S 20 G 28 16.09 Partly Cloudy SCT110 17 7 52% 76.07 0.0
05 23:35 S 20 G 33 16.09 Fair CLR 17 7 52% 76.07 0.0
05 23:15 S 19 G 28 16.09 Fair CLR 17 7 52% 76.07 0.0
05 22:55 S 19 G 30 16.09 Partly Cloudy SCT120 17 6 49% 76.07 0.0
05 22:35 S 13 16.09 Partly Cloudy SCT120 17 6 49% 76.1 0.0
05 22:15 S 17 16.09 Fair CLR 17 6 49% 76.1 0.0
05 21:55 S 15 16.09 Partly Cloudy SCT090 17 6 49% 76.1 0.0
05 21:35 S 13 16.09 Mostly Cloudy BKN100 17 6 49% 76.1 0.0
05 21:15 S 11 16.09 Overcast BKN100 OVC120 17 6 49% 76.1 0.0
05 20:55 S 11 16.09 Partly Cloudy SCT120 17 6 49% 76.1 0.0
05 20:35 S 11 16.09 Fair CLR 17 6 49% 76.1 0.0
05 20:15 S 13 16.09 Fair CLR 18 6 46% 76.1 0.0
05 19:55 S 13 16.09 Fair CLR 18 6 46% 76.1 0.0
05 19:35 S 17 G 31 16.09 Fair CLR 19 5 40% 76.1 0.0
05 19:15 S 24 G 35 16.09 Fair CLR 19 6 43% 76.07 0.0
05 18:55 S 17 G 43 16.09 Fair CLR 20 6 40% 76.05 0.0
05 18:35 S 20 G 35 16.09 Fair CLR 21 6 38% 76.05 0.0
05 18:15 S 22 G 35 16.09 Fair CLR 20 5 38% 76.07 0.0
05 17:55 S 19 G 39 16.09 Fair CLR 21 6 38% 76.05 0.0
05 17:35 S 22 G 33 16.09 Fair CLR 21 5 35% 76.07 0.0
05 17:15 SW 26 G 39 16.09 Fair CLR 21 5 35% 76.07 0.0
05 16:55 S 22 G 41 16.09 Fair CLR 21 4 33% 76.07 0.0
05 16:35 S 26 G 46 16.09 Fair CLR 21 4 33% 76.07 0.0
05 16:15 S 17 G 37 16.09 Fair CLR 21 6 38% 76.07 0.0
05 15:55 S 22 G 37 16.09 Fair CLR 21 6 38% 76.1 0.0
05 15:35 S 24 G 37 16.09 Fair CLR 22 6 36% 76.1 0.0
05 15:15 S 20 G 31 16.09 Fair CLR 22 5 33% 76.12 0.0
05 14:55 S 17 G 31 16.09 Fair CLR 21 3 31% 76.15 0.0
05 14:35 S 19 G 37 16.09 Fair CLR 21 3 31% 76.15 0.0
05 14:15 S 22 G 41 16.09 Fair CLR 21 4 33% 76.17 0.0
05 13:55 S 17 G 30 16.09 Fair CLR 21 7 40% 76.17 0.0
05 13:35 SE 22 16.09 Fair CLR 21 7 40% 76.17 0.0
05 13:15 S 20 16.09 Fair CLR 21 7 40% 76.2 0.0
05 12:55 S 17 16.09 Fair CLR 21 7 40% 76.2 0.0
05 12:35 SW 17 16.09 Fair CLR 21 6 38% 76.23 0.0
05 12:15 SW 11 G 17 16.09 Fair CLR 21 5 35% 76.25 0.0
05 11:55 SW 19 16.09 Fair CLR 20 5 38% 76.25 0.0
05 11:35 W 9 16.09 Fair CLR 20 5 38% 76.28 0.0
05 11:15 SW 11 16.09 Fair CLR 19 5 40% 76.3 0.0
05 10:55 SW 13 16.09 Fair CLR 19 6 43% 76.3 0.0
05 10:35 SW 15 16.09 Fair CLR 18 6 46% 76.28 0.0
05 10:15 SW 13 16.09 Fair CLR 18 5 43% 76.28 0.0
05 09:55 SW 6 16.09 Fair CLR 17 5 45% 76.28 0.0
05 09:35 SW 7 16.09 Fair CLR 17 7 52% 76.28 0.0
05 09:15 SW 9 16.09 Fair CLR 16 6 52% 76.28 0.0
05 08:55 S 7 16.09 Fair CLR 15 6 55% 76.25 0.0
05 08:35 S 7 16.09 Fair CLR 14 6 59% 76.25 0.0
05 08:15 S 6 16.09 Fair CLR 13 6 63% 76.23 0.0
05 07:55 S 6 16.09 Fair CLR 13 6 63% 76.23 0.0
05 07:35 Calm 16.09 Fair CLR 12 5 63% 76.23 0.0
05 07:15 S 6 16.09 Fair CLR 11 5 67% 76.23 0.0
05 06:55 Calm 16.09 Fair CLR 11 5 67% 76.2 0.0
05 06:35 S 6 16.09 Fair CLR 12 5 63% 76.17 0.0
05 06:15 S 7 16.09 Fair CLR 13 5 59% 76.17 0.0
05 05:55 S 9 16.09 Fair CLR 13 5 59% 76.15 0.0
05 05:35 S 7 16.09 Fair CLR 12 5 63% 76.15 0.0
05 05:15 S 9 16.09 Fair CLR 12 5 63% 76.15 0.0
Date Time (edt) Wind (kph) Vis. (km) Weather Sky Cond. Air Dwpt Max. Min. Relative Humidity Wind Chill (°C) Heat Index (°C) altimeter (cm) sea level (mb) 1 hr 3 hr 6 hr
6 hour
Temperature (ºC) Pressure Precipitation (cm)